sensor_id;sensor_type;location;lat;lon;timestamp;pressure;altitude;pressure_sealevel;temperature;humidity
63287;BME280;49410;55.708;37.522;2022-09-09T00:04:45;100164.31;;;7.83;62.42
63287;BME280;49410;55.708;37.522;2022-09-09T00:07:41;100165.47;;;7.90;62.25
63287;BME280;49410;55.708;37.522;2022-09-09T00:10:37;100169.63;;;7.85;61.97
63287;BME280;49410;55.708;37.522;2022-09-09T00:13:16;100176.22;;;7.82;62.36
63287;BME280;49410;55.708;37.522;2022-09-09T00:18:27;100176.34;;;7.71;62.80
63287;BME280;49410;55.708;37.522;2022-09-09T00:21:03;100169.59;;;7.65;62.76
63287;BME280;49410;55.708;37.522;2022-09-09T00:23:38;100171.16;;;7.68;62.74
63287;BME280;49410;55.708;37.522;2022-09-09T00:28:50;100171.16;;;7.58;62.86
63287;BME280;49410;55.708;37.522;2022-09-09T00:31:23;100175.03;;;7.65;62.89
63287;BME280;49410;55.708;37.522;2022-09-09T00:33:50;100177.84;;;7.54;63.30
63287;BME280;49410;55.708;37.522;2022-09-09T00:36:20;100178.00;;;7.62;62.89
63287;BME280;49410;55.708;37.522;2022-09-09T00:38:55;100184.75;;;7.58;62.96
63287;BME280;49410;55.708;37.522;2022-09-09T00:44:00;100184.34;;;7.63;63.08
63287;BME280;49410;55.708;37.522;2022-09-09T00:50:00;100186.03;;;7.64;62.87
63287;BME280;49410;55.708;37.522;2022-09-09T00:57:29;100200.66;;;7.63;63.09
63287;BME280;49410;55.708;37.522;2022-09-09T01:00:16;100196.66;;;7.67;63.33
63287;BME280;49410;55.708;37.522;2022-09-09T01:11:25;100210.69;;;7.62;63.57
63287;BME280;49410;55.708;37.522;2022-09-09T01:14:01;100209.09;;;7.59;63.45
63287;BME280;49410;55.708;37.522;2022-09-09T01:16:29;100207.97;;;7.62;63.65
63287;BME280;49410;55.708;37.522;2022-09-09T01:18:57;100205.81;;;7.66;63.79
63287;BME280;49410;55.708;37.522;2022-09-09T01:21:41;100216.13;;;7.62;64.28
63287;BME280;49410;55.708;37.522;2022-09-09T01:26:46;100216.63;;;7.46;64.67
63287;BME280;49410;55.708;37.522;2022-09-09T01:29:15;100222.81;;;7.48;64.71
63287;BME280;49410;55.708;37.522;2022-09-09T01:32:00;100224.22;;;7.42;65.62
63287;BME280;49410;55.708;37.522;2022-09-09T01:34:36;100224.47;;;7.39;65.72
63287;BME280;49410;55.708;37.522;2022-09-09T01:39:30;100230.63;;;7.32;65.71
63287;BME280;49410;55.708;37.522;2022-09-09T01:41:56;100225.88;;;7.34;65.17
63287;BME280;49410;55.708;37.522;2022-09-09T01:44:23;100231.47;;;7.32;65.52
63287;BME280;49410;55.708;37.522;2022-09-09T01:46:50;100230.00;;;7.28;65.65
63287;BME280;49410;55.708;37.522;2022-09-09T01:49:16;100233.47;;;7.30;65.29
63287;BME280;49410;55.708;37.522;2022-09-09T01:51:43;100238.31;;;7.26;65.45
63287;BME280;49410;55.708;37.522;2022-09-09T01:54:09;100243.56;;;7.18;66.43
63287;BME280;49410;55.708;37.522;2022-09-09T02:04:41;100254.28;;;7.10;66.75
63287;BME280;49410;55.708;37.522;2022-09-09T02:07:41;100247.22;;;7.07;67.08
63287;BME280;49410;55.708;37.522;2022-09-09T02:10:17;100257.78;;;7.01;67.28
63287;BME280;49410;55.708;37.522;2022-09-09T02:12:52;100258.06;;;6.97;67.40
63287;BME280;49410;55.708;37.522;2022-09-09T02:17:56;100255.88;;;6.91;67.37
63287;BME280;49410;55.708;37.522;2022-09-09T02:20:24;100259.50;;;6.80;67.76
63287;BME280;49410;55.708;37.522;2022-09-09T02:22:53;100260.91;;;6.75;68.05
63287;BME280;49410;55.708;37.522;2022-09-09T02:25:21;100264.75;;;6.72;68.62
63287;BME280;49410;55.708;37.522;2022-09-09T02:27:49;100273.28;;;6.67;68.31
63287;BME280;49410;55.708;37.522;2022-09-09T02:30:15;100270.91;;;6.74;67.92
63287;BME280;49410;55.708;37.522;2022-09-09T02:32:42;100280.72;;;6.65;68.91
63287;BME280;49410;55.708;37.522;2022-09-09T02:35:13;100276.84;;;6.68;68.92
63287;BME280;49410;55.708;37.522;2022-09-09T02:37:41;100277.00;;;6.66;68.61
63287;BME280;49410;55.708;37.522;2022-09-09T02:40:10;100266.72;;;6.70;68.29
63287;BME280;49410;55.708;37.522;2022-09-09T02:42:40;100268.38;;;6.61;69.08
63287;BME280;49410;55.708;37.522;2022-09-09T02:45:08;100284.22;;;6.56;69.08
63287;BME280;49410;55.708;37.522;2022-09-09T02:47:37;100279.16;;;6.51;69.40
63287;BME280;49410;55.708;37.522;2022-09-09T02:50:12;100281.88;;;6.51;69.91
63287;BME280;49410;55.708;37.522;2022-09-09T02:53:16;100294.38;;;6.43;70.75
63287;BME280;49410;55.708;37.522;2022-09-09T02:55:58;100298.22;;;6.40;70.56
63287;BME280;49410;55.708;37.522;2022-09-09T02:58:26;100305.03;;;6.34;70.30
63287;BME280;49410;55.708;37.522;2022-09-09T03:00:52;100297.88;;;6.33;70.32
63287;BME280;49410;55.708;37.522;2022-09-09T03:03:19;100302.22;;;6.25;70.72
63287;BME280;49410;55.708;37.522;2022-09-09T03:05:45;100302.09;;;6.26;70.63
63287;BME280;49410;55.708;37.522;2022-09-09T03:08:11;100298.63;;;6.24;70.09
63287;BME280;49410;55.708;37.522;2022-09-09T03:10:38;100305.31;;;6.20;70.72
63287;BME280;49410;55.708;37.522;2022-09-09T03:13:04;100301.72;;;6.19;70.57
63287;BME280;49410;55.708;37.522;2022-09-09T03:15:32;100305.06;;;6.23;70.38
63287;BME280;49410;55.708;37.522;2022-09-09T03:17:58;100299.50;;;6.25;69.94
63287;BME280;49410;55.708;37.522;2022-09-09T03:20:25;100304.19;;;6.22;70.33
63287;BME280;49410;55.708;37.522;2022-09-09T03:22:55;100307.16;;;6.19;70.36
63287;BME280;49410;55.708;37.522;2022-09-09T03:25:22;100305.72;;;6.15;71.22
63287;BME280;49410;55.708;37.522;2022-09-09T03:27:52;100306.06;;;6.11;71.09
63287;BME280;49410;55.708;37.522;2022-09-09T03:30:21;100314.09;;;6.12;70.87
63287;BME280;49410;55.708;37.522;2022-09-09T03:32:46;100311.63;;;6.09;71.44
63287;BME280;49410;55.708;37.522;2022-09-09T03:35:13;100315.47;;;6.06;71.60
63287;BME280;49410;55.708;37.522;2022-09-09T03:37:39;100320.50;;;6.11;71.01
63287;BME280;49410;55.708;37.522;2022-09-09T03:40:04;100325.19;;;6.09;71.63
63287;BME280;49410;55.708;37.522;2022-09-09T03:42:31;100329.03;;;6.18;71.03
63287;BME280;49410;55.708;37.522;2022-09-09T03:44:57;100327.50;;;6.36;71.06
63287;BME280;49410;55.708;37.522;2022-09-09T03:47:23;100335.31;;;6.62;70.32
63287;BME280;49410;55.708;37.522;2022-09-09T03:49:49;100331.13;;;6.91;69.53
63287;BME280;49410;55.708;37.522;2022-09-09T03:52:15;100334.13;;;7.09;68.98
63287;BME280;49410;55.708;37.522;2022-09-09T03:54:41;100336.59;;;7.33;68.14
63287;BME280;49410;55.708;37.522;2022-09-09T03:57:08;100337.28;;;7.56;68.09
63287;BME280;49410;55.708;37.522;2022-09-09T03:59:34;100339.13;;;7.77;67.44
63287;BME280;49410;55.708;37.522;2022-09-09T04:02:00;100327.72;;;7.93;67.04
63287;BME280;49410;55.708;37.522;2022-09-09T04:04:26;100333.81;;;8.06;65.96
63287;BME280;49410;55.708;37.522;2022-09-09T04:06:52;100335.81;;;8.14;65.28
63287;BME280;49410;55.708;37.522;2022-09-09T04:09:18;100332.13;;;8.25;65.25
63287;BME280;49410;55.708;37.522;2022-09-09T04:11:44;100330.69;;;8.21;64.31
63287;BME280;49410;55.708;37.522;2022-09-09T04:14:10;100308.47;;;8.26;64.82
63287;BME280;49410;55.708;37.522;2022-09-09T04:16:36;100332.50;;;8.61;64.82
63287;BME280;49410;55.708;37.522;2022-09-09T04:19:03;100346.59;;;8.86;64.12
63287;BME280;49410;55.708;37.522;2022-09-09T04:21:30;100353.50;;;9.10;64.03
63287;BME280;49410;55.708;37.522;2022-09-09T04:23:56;100329.91;;;9.28;62.97
63287;BME280;49410;55.708;37.522;2022-09-09T04:26:22;100334.84;;;9.62;62.25
63287;BME280;49410;55.708;37.522;2022-09-09T05:03:02;100424.00;;;14.13;nan
63287;BME280;49410;55.708;37.522;2022-09-09T05:41:59;100365.72;;;13.45;nan
63287;BME280;49410;55.708;37.522;2022-09-09T05:44:24;100373.38;;;13.33;nan
63287;BME280;49410;55.708;37.522;2022-09-09T05:46:52;100358.44;;;13.11;nan
63287;BME280;49410;55.708;37.522;2022-09-09T05:49:19;100353.47;;;12.98;nan
63287;BME280;49410;55.708;37.522;2022-09-09T05:51:45;100374.84;;;12.78;nan
63287;BME280;49410;55.708;37.522;2022-09-09T05:54:10;100364.66;;;12.45;nan
63287;BME280;49410;55.708;37.522;2022-09-09T05:56:36;100343.91;;;12.42;nan
63287;BME280;49410;55.708;37.522;2022-09-09T05:59:01;100367.56;;;12.35;nan
63287;BME280;49410;55.708;37.522;2022-09-09T06:01:30;100372.25;;;12.17;nan
63287;BME280;49410;55.708;37.522;2022-09-09T06:03:56;100381.59;;;11.98;nan
63287;BME280;49410;55.708;37.522;2022-09-09T06:06:29;100380.00;;;11.95;nan
63287;BME280;49410;55.708;37.522;2022-09-09T06:08:56;100378.56;;;11.83;nan
63287;BME280;49410;55.708;37.522;2022-09-09T06:11:28;100370.97;;;11.76;nan
63287;BME280;49410;55.708;37.522;2022-09-09T06:13:58;100363.66;;;11.59;nan
63287;BME280;49410;55.708;37.522;2022-09-09T06:16:26;100375.66;;;11.40;nan
63287;BME280;49410;55.708;37.522;2022-09-09T06:18:53;100400.28;;;11.58;nan
63287;BME280;49410;55.708;37.522;2022-09-09T06:21:21;100386.28;;;11.61;nan
63287;BME280;49410;55.708;37.522;2022-09-09T06:23:47;100394.28;;;11.80;nan
63287;BME280;49410;55.708;37.522;2022-09-09T06:26:18;100394.78;;;11.76;nan
63287;BME280;49410;55.708;37.522;2022-09-09T06:28:45;100397.56;;;11.58;nan
63287;BME280;49410;55.708;37.522;2022-09-09T06:31:12;100404.66;;;11.69;nan
63287;BME280;49410;55.708;37.522;2022-09-09T06:33:40;100398.34;;;11.50;nan
63287;BME280;49410;55.708;37.522;2022-09-09T06:36:17;100386.84;;;11.46;nan
63287;BME280;49410;55.708;37.522;2022-09-09T06:38:43;100397.78;;;11.64;nan
63287;BME280;49410;55.708;37.522;2022-09-09T06:41:10;100401.81;;;11.78;nan
63287;BME280;49410;55.708;37.522;2022-09-09T06:43:36;100406.31;;;11.61;nan
63287;BME280;49410;55.708;37.522;2022-09-09T06:46:09;100404.28;;;11.45;nan
63287;BME280;49410;55.708;37.522;2022-09-09T06:48:35;100414.41;;;11.45;nan
63287;BME280;49410;55.708;37.522;2022-09-09T06:51:05;100423.09;;;11.22;nan
63287;BME280;49410;55.708;37.522;2022-09-09T06:53:32;100417.38;;;11.33;nan
63287;BME280;49410;55.708;37.522;2022-09-09T06:56:28;100417.56;;;11.32;nan
63287;BME280;49410;55.708;37.522;2022-09-09T06:58:56;100424.41;;;11.36;nan
63287;BME280;49410;55.708;37.522;2022-09-09T07:01:24;100417.78;;;11.39;nan
63287;BME280;49410;55.708;37.522;2022-09-09T07:04:33;100426.50;;;11.60;nan
63287;BME280;49410;55.708;37.522;2022-09-09T07:06:59;100424.03;;;11.49;nan
63287;BME280;49410;55.708;37.522;2022-09-09T07:09:26;100428.03;;;11.37;nan
63287;BME280;49410;55.708;37.522;2022-09-09T07:11:52;100423.56;;;11.36;nan
63287;BME280;49410;55.708;37.522;2022-09-09T07:14:19;100443.72;;;11.16;nan
63287;BME280;49410;55.708;37.522;2022-09-09T07:16:46;100430.28;;;11.59;nan
63287;BME280;49410;55.708;37.522;2022-09-09T07:19:12;100430.75;;;11.81;nan
63287;BME280;49410;55.708;37.522;2022-09-09T07:21:38;100417.97;;;12.08;nan
63287;BME280;49410;55.708;37.522;2022-09-09T07:24:05;100432.66;;;12.33;nan
63287;BME280;49410;55.708;37.522;2022-09-09T07:26:33;100422.72;;;12.32;nan
63287;BME280;49410;55.708;37.522;2022-09-09T07:28:59;100442.28;;;12.37;nan
63287;BME280;49410;55.708;37.522;2022-09-09T07:31:27;100449.28;;;12.32;nan
63287;BME280;49410;55.708;37.522;2022-09-09T07:33:55;100444.59;;;12.16;nan
63287;BME280;49410;55.708;37.522;2022-09-09T07:36:32;100443.53;;;11.90;nan
63287;BME280;49410;55.708;37.522;2022-09-09T07:39:00;100448.34;;;11.96;nan
63287;BME280;49410;55.708;37.522;2022-09-09T07:41:32;100454.56;;;11.80;nan
63287;BME280;49410;55.708;37.522;2022-09-09T07:44:03;100460.47;;;11.68;nan
63287;BME280;49410;55.708;37.522;2022-09-09T07:46:29;100453.81;;;11.52;nan
63287;BME280;49410;55.708;37.522;2022-09-09T07:48:56;100460.31;;;11.51;nan
63287;BME280;49410;55.708;37.522;2022-09-09T07:51:30;100466.03;;;11.22;nan
63287;BME280;49410;55.708;37.522;2022-09-09T07:53:59;100454.41;;;11.38;nan
63287;BME280;49410;55.708;37.522;2022-09-09T07:56:26;100465.63;;;11.71;nan
63287;BME280;49410;55.708;37.522;2022-09-09T07:58:54;100450.81;;;12.00;nan
63287;BME280;49410;55.708;37.522;2022-09-09T08:01:25;100470.88;;;12.35;nan
63287;BME280;49410;55.708;37.522;2022-09-09T08:03:59;100473.38;;;12.20;nan
63287;BME280;49410;55.708;37.522;2022-09-09T08:06:27;100476.59;;;12.15;nan
63287;BME280;49410;55.708;37.522;2022-09-09T08:08:54;100475.00;;;12.31;nan
63287;BME280;49410;55.708;37.522;2022-09-09T08:11:21;100460.13;;;12.41;nan
63287;BME280;49410;55.708;37.522;2022-09-09T08:13:49;100452.34;;;12.63;nan
63287;BME280;49410;55.708;37.522;2022-09-09T08:16:21;100453.31;;;12.88;nan
63287;BME280;49410;55.708;37.522;2022-09-09T08:18:49;100454.72;;;13.01;nan
63287;BME280;49410;55.708;37.522;2022-09-09T08:24:33;100465.16;;;12.97;nan
63287;BME280;49410;55.708;37.522;2022-09-09T08:26:58;100473.53;;;12.87;nan
63287;BME280;49410;55.708;37.522;2022-09-09T08:29:24;100487.63;;;12.58;nan
63287;BME280;49410;55.708;37.522;2022-09-09T08:31:55;100469.31;;;12.58;nan
63287;BME280;49410;55.708;37.522;2022-09-09T08:34:22;100461.03;;;12.50;nan
63287;BME280;49410;55.708;37.522;2022-09-09T08:36:50;100473.38;;;12.97;nan
63287;BME280;49410;55.708;37.522;2022-09-09T08:39:18;100481.16;;;13.10;nan
63287;BME280;49410;55.708;37.522;2022-09-09T08:50:27;100483.03;;;12.58;nan
63287;BME280;49410;55.708;37.522;2022-09-09T08:58:19;100489.09;;;12.44;nan
63287;BME280;49410;55.708;37.522;2022-09-09T09:11:26;100490.56;;;13.08;nan
63287;BME280;49410;55.708;37.522;2022-09-09T09:13:57;100492.44;;;12.99;nan
63287;BME280;49410;55.708;37.522;2022-09-09T09:16:39;100493.59;;;12.88;nan
63287;BME280;49410;55.708;37.522;2022-09-09T09:19:13;100473.75;;;12.94;nan
63287;BME280;49410;55.708;37.522;2022-09-09T09:22:14;100487.97;;;12.89;nan
63287;BME280;49410;55.708;37.522;2022-09-09T09:24:55;100472.84;;;12.85;nan
63287;BME280;49410;55.708;37.522;2022-09-09T09:27:30;100487.75;;;12.83;nan
63287;BME280;49410;55.708;37.522;2022-09-09T09:29:58;100486.84;;;12.74;nan
63287;BME280;49410;55.708;37.522;2022-09-09T09:32:25;100476.06;;;12.72;nan
63287;BME280;49410;55.708;37.522;2022-09-09T09:34:55;100488.09;;;12.80;nan
63287;BME280;49410;55.708;37.522;2022-09-09T09:37:27;100488.09;;;12.80;nan
63287;BME280;49410;55.708;37.522;2022-09-09T09:39:54;100469.03;;;12.78;nan
63287;BME280;49410;55.708;37.522;2022-09-09T09:42:20;100486.34;;;12.79;nan
63287;BME280;49410;55.708;37.522;2022-09-09T09:44:45;100481.78;;;12.87;nan
63287;BME280;49410;55.708;37.522;2022-09-09T09:47:19;100471.78;;;12.78;nan
63287;BME280;49410;55.708;37.522;2022-09-09T09:49:56;100483.78;;;12.77;nan
63287;BME280;49410;55.708;37.522;2022-09-09T09:52:30;100492.00;;;12.69;nan
63287;BME280;49410;55.708;37.522;2022-09-09T09:54:58;100487.50;;;12.60;nan
63287;BME280;49410;55.708;37.522;2022-09-09T09:57:30;100483.53;;;12.54;nan
63287;BME280;49410;55.708;37.522;2022-09-09T10:02:48;100486.16;;;12.72;nan
63287;BME280;49410;55.708;37.522;2022-09-09T10:05:25;100477.69;;;12.57;nan
63287;BME280;49410;55.708;37.522;2022-09-09T10:08:11;100486.16;;;12.72;nan
63287;BME280;49410;55.708;37.522;2022-09-09T10:19:04;100485.31;;;12.37;nan
63287;BME280;49410;55.708;37.522;2022-09-09T10:24:17;100496.22;;;12.55;nan
63287;BME280;49410;55.708;37.522;2022-09-09T10:33:08;100491.84;;;12.79;nan
63287;BME280;49410;55.708;37.522;2022-09-09T10:40:49;100498.09;;;12.97;nan
63287;BME280;49410;55.708;37.522;2022-09-09T10:47:01;100499.22;;;12.78;nan
63287;BME280;49410;55.708;37.522;2022-09-09T10:55:24;100497.28;;;12.36;nan
63287;BME280;49410;55.708;37.522;2022-09-09T10:57:53;100496.16;;;12.47;nan
63287;BME280;49410;55.708;37.522;2022-09-09T11:00:40;100488.22;;;12.70;nan
63287;BME280;49410;55.708;37.522;2022-09-09T11:03:28;100492.06;;;12.94;nan
63287;BME280;49410;55.708;37.522;2022-09-09T11:06:06;100486.41;;;12.87;nan
63287;BME280;49410;55.708;37.522;2022-09-09T11:08:38;100490.59;;;12.65;nan
63287;BME280;49410;55.708;37.522;2022-09-09T11:11:30;100496.78;;;12.67;nan
63287;BME280;49410;55.708;37.522;2022-09-09T11:16:49;100500.28;;;12.51;nan
63287;BME280;49410;55.708;37.522;2022-09-09T11:19:24;100501.22;;;12.33;nan
63287;BME280;49410;55.708;37.522;2022-09-09T11:21:52;100498.06;;;12.20;nan
63287;BME280;49410;55.708;37.522;2022-09-09T11:27:00;100491.97;;;12.08;nan
63287;BME280;49410;55.708;37.522;2022-09-09T11:40:27;100495.22;;;12.64;nan
63287;BME280;49410;55.708;37.522;2022-09-09T11:43:50;100498.00;;;12.72;nan
63287;BME280;49410;55.708;37.522;2022-09-09T11:45:52;100492.03;;;12.77;nan
63287;BME280;49410;55.708;37.522;2022-09-09T11:48:30;100479.06;;;12.96;nan
63287;BME280;49410;55.708;37.522;2022-09-09T11:51:06;100498.34;;;13.12;nan
63287;BME280;49410;55.708;37.522;2022-09-09T11:53:34;100494.09;;;13.34;nan
63287;BME280;49410;55.708;37.522;2022-09-09T11:56:11;100472.81;;;13.36;nan
63287;BME280;49410;55.708;37.522;2022-09-09T11:58:53;100483.16;;;13.59;nan
63287;BME280;49410;55.708;37.522;2022-09-09T12:01:39;100480.22;;;13.44;nan
63287;BME280;49410;55.708;37.522;2022-09-09T12:06:50;100486.78;;;13.00;nan
63287;BME280;49410;55.708;37.522;2022-09-09T12:09:25;100492.78;;;12.96;nan
63287;BME280;49410;55.708;37.522;2022-09-09T12:11:53;100480.59;;;12.98;nan
63287;BME280;49410;55.708;37.522;2022-09-09T12:19:40;100497.31;;;12.70;nan
63287;BME280;49410;55.708;37.522;2022-09-09T12:22:30;100497.19;;;12.80;nan
63287;BME280;49410;55.708;37.522;2022-09-09T12:25:16;100495.13;;;12.82;nan
63287;BME280;49410;55.708;37.522;2022-09-09T12:33:20;100483.84;;;12.94;nan
63287;BME280;49410;55.708;37.522;2022-09-09T12:35:55;100474.38;;;12.88;nan
63287;BME280;49410;55.708;37.522;2022-09-09T12:38:32;100479.34;;;12.84;nan
63287;BME280;49410;55.708;37.522;2022-09-09T12:40:59;100480.53;;;12.82;nan
63287;BME280;49410;55.708;37.522;2022-09-09T12:43:27;100479.56;;;12.99;nan
63287;BME280;49410;55.708;37.522;2022-09-09T12:46:00;100485.59;;;13.03;nan
63287;BME280;49410;55.708;37.522;2022-09-09T12:48:39;100477.53;;;13.01;nan
63287;BME280;49410;55.708;37.522;2022-09-09T12:51:24;100485.28;;;13.14;nan
63287;BME280;49410;55.708;37.522;2022-09-09T12:53:51;100495.94;;;13.17;nan
63287;BME280;49410;55.708;37.522;2022-09-09T12:56:21;100472.25;;;13.33;nan
63287;BME280;49410;55.708;37.522;2022-09-09T12:58:50;100473.00;;;13.43;nan
63287;BME280;49410;55.708;37.522;2022-09-09T13:01:28;100469.72;;;13.40;nan
63287;BME280;49410;55.708;37.522;2022-09-09T13:03:55;100481.56;;;13.32;nan
63287;BME280;49410;55.708;37.522;2022-09-09T13:06:39;100479.13;;;13.12;nan
63287;BME280;49410;55.708;37.522;2022-09-09T13:09:04;100485.44;;;13.13;nan
63287;BME280;49410;55.708;37.522;2022-09-09T13:11:47;100477.75;;;13.16;nan
63287;BME280;49410;55.708;37.522;2022-09-09T13:14:18;100489.00;;;12.97;nan
63287;BME280;49410;55.708;37.522;2022-09-09T13:16:55;100443.53;;;12.86;nan
63287;BME280;49410;55.708;37.522;2022-09-09T13:19:48;100480.28;;;13.01;nan
63287;BME280;49410;55.708;37.522;2022-09-09T13:22:27;100478.72;;;12.99;nan
63287;BME280;49410;55.708;37.522;2022-09-09T13:27:38;100485.63;;;13.11;nan
63287;BME280;49410;55.708;37.522;2022-09-09T13:30:34;100468.97;;;13.04;nan
63287;BME280;49410;55.708;37.522;2022-09-09T13:35:35;100480.78;;;13.05;nan
63287;BME280;49410;55.708;37.522;2022-09-09T13:38:14;100481.66;;;13.05;nan
63287;BME280;49410;55.708;37.522;2022-09-09T13:40:40;100481.16;;;13.10;nan
63287;BME280;49410;55.708;37.522;2022-09-09T13:43:17;100467.88;;;12.97;nan
63287;BME280;49410;55.708;37.522;2022-09-09T13:45:55;100482.13;;;12.93;nan
63287;BME280;49410;55.708;37.522;2022-09-09T13:48:22;100486.44;;;12.95;nan
63287;BME280;49410;55.708;37.522;2022-09-09T13:50:59;100483.91;;;13.02;nan
63287;BME280;49410;55.708;37.522;2022-09-09T13:53:26;100475.44;;;12.87;nan
63287;BME280;49410;55.708;37.522;2022-09-09T13:55:51;100482.47;;;12.89;nan
63287;BME280;49410;55.708;37.522;2022-09-09T13:58:18;100470.63;;;12.97;nan
63287;BME280;49410;55.708;37.522;2022-09-09T14:00:45;100481.06;;;12.85;nan
63287;BME280;49410;55.708;37.522;2022-09-09T14:03:11;100466.59;;;12.67;nan
63287;BME280;49410;55.708;37.522;2022-09-09T14:05:37;100477.03;;;12.63;nan
63287;BME280;49410;55.708;37.522;2022-09-09T14:08:07;100479.13;;;12.69;nan
63287;BME280;49410;55.708;37.522;2022-09-09T14:10:33;100470.53;;;12.64;nan
63287;BME280;49410;55.708;37.522;2022-09-09T14:13:02;100488.31;;;12.52;nan
63287;BME280;49410;55.708;37.522;2022-09-09T14:15:28;100475.56;;;12.42;nan
63287;BME280;49410;55.708;37.522;2022-09-09T14:17:54;100473.06;;;12.57;nan
63287;BME280;49410;55.708;37.522;2022-09-09T14:20:20;100459.47;;;12.48;nan
63287;BME280;49410;55.708;37.522;2022-09-09T14:22:46;100486.06;;;12.47;nan
63287;BME280;49410;55.708;37.522;2022-09-09T14:25:12;100472.75;;;12.61;nan
63287;BME280;49410;55.708;37.522;2022-09-09T14:27:41;100470.84;;;12.61;nan
63287;BME280;49410;55.708;37.522;2022-09-09T14:30:08;100462.31;;;12.64;nan
63287;BME280;49410;55.708;37.522;2022-09-09T14:32:34;100472.28;;;12.73;nan
63287;BME280;49410;55.708;37.522;2022-09-09T14:35:00;100471.75;;;12.70;nan
63287;BME280;49410;55.708;37.522;2022-09-09T14:37:27;100461.00;;;12.77;nan
63287;BME280;49410;55.708;37.522;2022-09-09T14:39:52;100462.00;;;12.76;nan
63287;BME280;49410;55.708;37.522;2022-09-09T14:42:19;100464.88;;;12.66;nan
63287;BME280;49410;55.708;37.522;2022-09-09T14:44:44;100476.72;;;12.66;nan
63287;BME280;49410;55.708;37.522;2022-09-09T14:47:10;100481.91;;;12.43;nan
63287;BME280;49410;55.708;37.522;2022-09-09T14:49:35;100465.59;;;12.33;nan
63287;BME280;49410;55.708;37.522;2022-09-09T14:52:03;100475.81;;;12.23;nan
63287;BME280;49410;55.708;37.522;2022-09-09T14:54:28;100475.09;;;12.21;nan
63287;BME280;49410;55.708;37.522;2022-09-09T14:56:54;100476.28;;;12.18;nan
63287;BME280;49410;55.708;37.522;2022-09-09T14:59:19;100471.13;;;12.15;nan
63287;BME280;49410;55.708;37.522;2022-09-09T15:01:45;100474.34;;;12.10;nan
63287;BME280;49410;55.708;37.522;2022-09-09T15:04:12;100477.75;;;12.04;nan
63287;BME280;49410;55.708;37.522;2022-09-09T15:06:39;100470.06;;;11.90;nan
63287;BME280;49410;55.708;37.522;2022-09-09T15:09:05;100479.47;;;11.87;nan
63287;BME280;49410;55.708;37.522;2022-09-09T15:11:33;100469.59;;;11.76;nan
63287;BME280;49410;55.708;37.522;2022-09-09T15:14:03;100483.69;;;11.81;nan
63287;BME280;49410;55.708;37.522;2022-09-09T15:16:29;100476.81;;;11.77;nan
63287;BME280;49410;55.708;37.522;2022-09-09T15:18:57;100469.22;;;11.71;nan
63287;BME280;49410;55.708;37.522;2022-09-09T15:21:28;100473.94;;;11.79;nan
63287;BME280;49410;55.708;37.522;2022-09-09T15:23:55;100481.81;;;11.82;nan
63287;BME280;49410;55.708;37.522;2022-09-09T15:26:21;100478.78;;;11.67;nan
63287;BME280;49410;55.708;37.522;2022-09-09T15:28:47;100446.78;;;11.49;nan
63287;BME280;49410;55.708;37.522;2022-09-09T15:31:15;100480.59;;;11.58;nan
63287;BME280;49410;55.708;37.522;2022-09-09T15:33:53;100480.38;;;11.52;nan
63287;BME280;49410;55.708;37.522;2022-09-09T15:36:26;100482.56;;;11.48;nan
63287;BME280;49410;55.708;37.522;2022-09-09T15:38:54;100492.34;;;11.50;nan
63287;BME280;49410;55.708;37.522;2022-09-09T15:41:21;100484.75;;;11.44;nan
63287;BME280;49410;55.708;37.522;2022-09-09T15:43:51;100486.53;;;11.36;nan
63287;BME280;49410;55.708;37.522;2022-09-09T15:48:53;100477.91;;;11.30;nan
63287;BME280;49410;55.708;37.522;2022-09-09T15:51:19;100489.22;;;11.27;nan
63287;BME280;49410;55.708;37.522;2022-09-09T15:53:45;100495.22;;;11.31;nan
63287;BME280;49410;55.708;37.522;2022-09-09T15:56:11;100495.16;;;11.23;nan
63287;BME280;49410;55.708;37.522;2022-09-09T15:58:37;100503.81;;;11.18;nan
63287;BME280;49410;55.708;37.522;2022-09-09T16:01:06;100508.28;;;11.19;nan
63287;BME280;49410;55.708;37.522;2022-09-09T16:03:40;100514.78;;;11.18;nan
63287;BME280;49410;55.708;37.522;2022-09-09T16:06:08;100502.69;;;11.11;nan
63287;BME280;49410;55.708;37.522;2022-09-09T16:08:35;100496.28;;;11.02;nan
63287;BME280;49410;55.708;37.522;2022-09-09T16:11:11;100495.88;;;10.97;nan
63287;BME280;49410;55.708;37.522;2022-09-09T16:13:39;100505.25;;;10.94;nan
63287;BME280;49410;55.708;37.522;2022-09-09T16:16:06;100503.91;;;10.80;nan
63287;BME280;49410;55.708;37.522;2022-09-09T16:18:48;100512.00;;;10.72;nan
63287;BME280;49410;55.708;37.522;2022-09-09T16:21:17;100524.44;;;10.56;nan
63287;BME280;49410;55.708;37.522;2022-09-09T16:23:43;100518.75;;;10.40;nan
63287;BME280;49410;55.708;37.522;2022-09-09T16:26:14;100513.41;;;10.29;nan
63287;BME280;49410;55.708;37.522;2022-09-09T16:28:40;100519.91;;;10.18;nan
63287;BME280;49410;55.708;37.522;2022-09-09T16:31:11;100526.53;;;10.15;nan
63287;BME280;49410;55.708;37.522;2022-09-09T16:33:40;100530.00;;;10.07;nan
63287;BME280;49410;55.708;37.522;2022-09-09T16:36:13;100490.34;;;9.74;nan
63287;BME280;49410;55.708;37.522;2022-09-09T16:38:40;100533.19;;;9.83;nan
63287;BME280;49410;55.708;37.522;2022-09-09T16:41:08;100524.72;;;9.67;nan
63287;BME280;49410;55.708;37.522;2022-09-09T16:43:34;100525.13;;;9.52;nan
63287;BME280;49410;55.708;37.522;2022-09-09T16:46:15;100489.78;;;9.21;nan
63287;BME280;49410;55.708;37.522;2022-09-09T16:48:43;100529.59;;;9.33;nan
63287;BME280;49410;55.708;37.522;2022-09-09T16:51:14;100539.78;;;9.31;nan